Time;durP1;ratioP1;P1;durP2;ratioP2;P2;SDS_P1;SDS_P2;PMS_P1;PMS_P2;Temp;Humidity;BMP_temperature;BMP_pressure;BME280_temperature;BME280_humidity;BME280_pressure;Samples;Min_cycle;Max_cycle;Signal;HPM_P1;HPM_P2
2022/10/02 00:01:57;;;;;;;9.00;3.37;;;;;;;;;;5086185;28;20208;-77
2022/10/02 00:04:26;;;;;;;10.17;3.00;;;;;;;;;;5087908;28;20602;-77
2022/10/02 00:06:54;;;;;;;9.30;3.30;;;;;;;;;;5087232;28;20181;-77
2022/10/02 00:09:24;;;;;;;10.03;3.80;;;;;;;;;;5079578;28;20266;-77
2022/10/02 00:11:54;;;;;;;5.87;3.30;;;;;;;;;;5074641;28;20208;-77
2022/10/02 00:14:22;;;;;;;8.70;3.43;;;;;;;;;;5083187;28;20192;-77
2022/10/02 00:16:50;;;;;;;8.63;3.17;;;;;;;;;;5081452;28;20267;-77
2022/10/02 00:19:17;;;;;;;8.57;3.43;;;;;;;;;;5088051;28;20216;-77
2022/10/02 00:21:43;;;;;;;5.17;3.17;;;;;;;;;;5085054;28;20204;-77
2022/10/02 00:24:14;;;;;;;8.50;3.27;;;;;;;;;;5061595;28;20566;-77
2022/10/02 00:26:52;;;;;;;10.53;2.73;;;;;;;;;;5073133;28;20205;-78
2022/10/02 00:29:31;;;;;;;5.83;2.90;;;;;;;;;;5067046;28;20185;-78
2022/10/02 00:32:14;;;;;;;5.80;3.10;;;;;;;;;;5081471;28;20716;-78
2022/10/02 00:34:59;;;;;;;7.63;3.00;;;;;;;;;;5087858;28;20560;-78
2022/10/02 00:37:44;;;;;;;7.07;2.73;;;;;;;;;;5071912;28;20648;-78
2022/10/02 00:40:37;;;;;;;6.63;2.90;;;;;;;;;;5081275;28;20315;-78
2022/10/02 00:43:03;;;;;;;7.60;2.80;;;;;;;;;;5060142;28;20227;-78
2022/10/02 00:45:53;;;;;;;7.57;2.90;;;;;;;;;;5072275;28;20181;-78
2022/10/02 00:48:34;;;;;;;6.47;3.00;;;;;;;;;;5059834;28;20267;-77
2022/10/02 00:51:19;;;;;;;7.37;3.20;;;;;;;;;;5065076;28;20223;-77
2022/10/02 00:53:45;;;;;;;6.70;2.80;;;;;;;;;;5054230;28;20185;-78
2022/10/02 00:56:24;;;;;;;7.50;3.07;;;;;;;;;;5078301;28;20197;-78
2022/10/02 00:59:06;;;;;;;5.10;3.00;;;;;;;;;;5086218;28;20374;-77
2022/10/02 01:01:53;;;;;;;6.07;3.00;;;;;;;;;;5076159;28;20201;-78
2022/10/02 01:04:26;;;;;;;5.97;2.90;;;;;;;;;;5084019;28;20602;-77
2022/10/02 01:06:52;;;;;;;6.97;3.10;;;;;;;;;;5085065;28;20234;-78
2022/10/02 01:09:19;;;;;;;7.17;2.80;;;;;;;;;;5084518;28;20226;-78
2022/10/02 01:11:46;;;;;;;5.60;2.83;;;;;;;;;;5073372;28;20200;-78
2022/10/02 01:14:13;;;;;;;7.33;2.50;;;;;;;;;;5062277;28;20192;-78
2022/10/02 01:16:41;;;;;;;6.83;2.80;;;;;;;;;;5068213;28;20189;-78
2022/10/02 01:19:22;;;;;;;9.23;2.70;;;;;;;;;;5085529;28;20329;-78
2022/10/02 01:21:52;;;;;;;9.00;2.70;;;;;;;;;;5074437;28;20243;-78
2022/10/02 01:24:32;;;;;;;5.70;2.80;;;;;;;;;;5078802;28;20180;-78
2022/10/02 01:26:58;;;;;;;6.30;2.70;;;;;;;;;;5082169;28;20193;-77
2022/10/02 01:29:24;;;;;;;5.03;2.57;;;;;;;;;;5061887;28;20199;-78
2022/10/02 01:31:50;;;;;;;5.27;2.60;;;;;;;;;;5079900;28;20204;-78
2022/10/02 01:34:17;;;;;;;9.33;3.53;;;;;;;;;;5052436;28;20181;-77
2022/10/02 01:36:43;;;;;;;9.10;2.80;;;;;;;;;;5077477;28;20185;-78
2022/10/02 01:39:10;;;;;;;7.13;2.90;;;;;;;;;;5083777;28;20801;-78
2022/10/02 01:41:40;;;;;;;6.00;2.60;;;;;;;;;;5083138;28;20205;-78
2022/10/02 01:44:07;;;;;;;7.63;3.00;;;;;;;;;;5084130;28;20185;-77
2022/10/02 01:46:36;;;;;;;7.47;2.50;;;;;;;;;;5082854;28;20701;-78
2022/10/02 01:49:11;;;;;;;5.73;2.50;;;;;;;;;;5085819;28;20189;-78
2022/10/02 01:51:56;;;;;;;5.73;2.87;;;;;;;;;;5090970;28;20474;-77
2022/10/02 01:54:29;;;;;;;6.63;2.83;;;;;;;;;;5085635;28;20652;-77
2022/10/02 01:56:58;;;;;;;4.50;2.43;;;;;;;;;;5083052;28;20203;-77
2022/10/02 01:59:44;;;;;;;10.03;2.97;;;;;;;;;;5087797;28;20636;-78
2022/10/02 02:02:16;;;;;;;6.97;2.43;;;;;;;;;;5056582;28;20682;-78
2022/10/02 02:05:01;;;;;;;8.93;5.57;;;;;;;;;;5085868;28;20180;-78
2022/10/02 02:07:34;;;;;;;9.07;4.53;;;;;;;;;;5085404;28;20176;-80
2022/10/02 02:10:06;;;;;;;7.13;3.73;;;;;;;;;;5077300;28;20905;-77
2022/10/02 02:12:42;;;;;;;8.50;3.30;;;;;;;;;;5077598;28;20197;-78
2022/10/02 02:15:34;;;;;;;5.83;2.93;;;;;;;;;;5086847;28;20675;-78
2022/10/02 02:18:00;;;;;;;7.20;2.97;;;;;;;;;;5059696;28;20302;-78
2022/10/02 02:20:30;;;;;;;4.67;2.70;;;;;;;;;;5066954;28;20273;-78
2022/10/02 02:22:59;;;;;;;7.33;2.83;;;;;;;;;;5088454;28;20272;-77
2022/10/02 02:25:27;;;;;;;6.60;3.03;;;;;;;;;;5078442;28;20197;-77
2022/10/02 02:27:56;;;;;;;5.20;2.73;;;;;;;;;;5087719;28;20229;-78
2022/10/02 02:30:23;;;;;;;6.40;2.60;;;;;;;;;;5073709;28;20213;-78
2022/10/02 02:32:52;;;;;;;4.13;2.50;;;;;;;;;;5086254;28;20180;-78
2022/10/02 02:35:35;;;;;;;7.93;2.80;;;;;;;;;;5059819;28;20192;-78
2022/10/02 02:38:06;;;;;;;6.57;2.60;;;;;;;;;;5079418;28;20662;-78
2022/10/02 02:40:35;;;;;;;6.67;2.50;;;;;;;;;;5085571;28;20225;-78
2022/10/02 02:43:22;;;;;;;6.10;2.60;;;;;;;;;;5083490;28;20523;-77
2022/10/02 02:45:54;;;;;;;7.27;2.50;;;;;;;;;;5081431;28;20192;-77
2022/10/02 02:48:22;;;;;;;4.77;2.37;;;;;;;;;;5081315;28;20592;-78
2022/10/02 02:50:54;;;;;;;5.07;2.37;;;;;;;;;;5063638;28;20205;-78
2022/10/02 02:53:24;;;;;;;5.57;2.43;;;;;;;;;;5082891;28;20209;-78
2022/10/02 02:56:00;;;;;;;6.73;3.23;;;;;;;;;;5085700;28;20195;-78
2022/10/02 02:58:34;;;;;;;6.33;2.70;;;;;;;;;;5062463;28;20198;-78
2022/10/02 03:01:00;;;;;;;5.50;3.13;;;;;;;;;;5081711;28;20877;-77
2022/10/02 03:03:26;;;;;;;6.93;2.80;;;;;;;;;;5088015;28;20272;-78
2022/10/02 03:05:57;;;;;;;6.43;3.43;;;;;;;;;;5085827;28;20482;-78
2022/10/02 03:08:27;;;;;;;9.17;3.27;;;;;;;;;;5086169;28;20180;-77
2022/10/02 03:11:00;;;;;;;7.20;3.30;;;;;;;;;;5065187;28;20245;-77
2022/10/02 03:13:38;;;;;;;6.47;2.83;;;;;;;;;;5077706;28;20345;-78
2022/10/02 03:16:22;;;;;;;7.33;3.47;;;;;;;;;;5076061;28;20181;-77
2022/10/02 03:18:53;;;;;;;7.50;3.00;;;;;;;;;;5078817;28;20192;-78
2022/10/02 03:21:26;;;;;;;7.37;3.50;;;;;;;;;;5084530;28;20671;-77
2022/10/02 03:24:06;;;;;;;6.97;3.20;;;;;;;;;;5083983;28;20184;-78
2022/10/02 03:26:40;;;;;;;8.10;3.17;;;;;;;;;;5080273;28;20202;-78
2022/10/02 03:29:13;;;;;;;7.87;3.20;;;;;;;;;;5082135;28;20183;-77
2022/10/02 03:31:40;;;;;;;9.73;3.57;;;;;;;;;;5059895;28;20197;-77
2022/10/02 03:34:06;;;;;;;8.30;3.30;;;;;;;;;;5069513;28;20279;-78
2022/10/02 03:36:32;;;;;;;8.67;3.70;;;;;;;;;;5083966;28;20178;-78
2022/10/02 03:39:00;;;;;;;5.97;3.10;;;;;;;;;;5081991;28;20181;-77
2022/10/02 03:41:26;;;;;;;10.27;3.33;;;;;;;;;;5084958;28;20200;-77
2022/10/02 03:43:52;;;;;;;10.03;3.30;;;;;;;;;;5084988;28;20183;-77
2022/10/02 03:46:18;;;;;;;7.33;3.50;;;;;;;;;;5085913;28;20218;-77
2022/10/02 03:48:44;;;;;;;6.77;3.27;;;;;;;;;;5075412;28;20183;-77
2022/10/02 03:51:10;;;;;;;7.70;3.67;;;;;;;;;;5079908;28;20201;-77
2022/10/02 03:53:37;;;;;;;10.87;3.93;;;;;;;;;;5079232;28;20203;-78
2022/10/02 03:56:06;;;;;;;11.13;4.53;;;;;;;;;;5083821;28;20188;-78
2022/10/02 03:58:32;;;;;;;13.10;5.20;;;;;;;;;;5087461;28;20226;-77
2022/10/02 04:01:07;;;;;;;8.27;3.73;;;;;;;;;;5085639;28;20219;-77
2022/10/02 04:03:36;;;;;;;6.97;3.70;;;;;;;;;;5042961;28;20180;-77
2022/10/02 04:06:18;;;;;;;7.67;3.50;;;;;;;;;;5080554;28;20181;-78
2022/10/02 04:08:51;;;;;;;8.33;3.50;;;;;;;;;;5088328;28;20176;-78
2022/10/02 04:11:24;;;;;;;9.13;3.57;;;;;;;;;;5080511;28;20668;-77
2022/10/02 04:13:54;;;;;;;8.57;3.20;;;;;;;;;;5050139;28;20181;-78
2022/10/02 04:16:32;;;;;;;8.70;3.20;;;;;;;;;;5077426;28;20192;-77
2022/10/02 04:19:18;;;;;;;10.03;3.17;;;;;;;;;;5061508;28;20195;-77
2022/10/02 04:22:07;;;;;;;5.60;3.20;;;;;;;;;;5063426;28;20232;-78
2022/10/02 04:24:38;;;;;;;7.00;3.33;;;;;;;;;;5080317;28;20233;-78
2022/10/02 04:27:13;;;;;;;9.43;3.60;;;;;;;;;;5070036;28;20187;-78
2022/10/02 04:29:42;;;;;;;8.67;3.87;;;;;;;;;;5088036;28;20214;-77
2022/10/02 04:32:16;;;;;;;9.33;3.43;;;;;;;;;;5077134;28;20196;-77
2022/10/02 04:34:42;;;;;;;10.57;3.40;;;;;;;;;;5077920;28;20292;-77
2022/10/02 04:37:23;;;;;;;6.77;3.00;;;;;;;;;;5080071;28;20176;-78
2022/10/02 04:39:57;;;;;;;7.37;3.30;;;;;;;;;;5082151;28;20754;-77
2022/10/02 04:42:42;;;;;;;11.27;5.27;;;;;;;;;;5081901;28;20188;-77
2022/10/02 04:45:30;;;;;;;11.07;3.80;;;;;;;;;;5082686;28;20267;-77
2022/10/02 04:48:05;;;;;;;12.33;3.83;;;;;;;;;;5080145;28;20220;-77
2022/10/02 04:50:39;;;;;;;9.80;3.47;;;;;;;;;;5056650;28;20611;-77
2022/10/02 04:53:24;;;;;;;8.83;3.60;;;;;;;;;;5078202;28;20191;-78
2022/10/02 04:55:50;;;;;;;12.00;3.43;;;;;;;;;;5080593;28;20664;-78
2022/10/02 04:58:24;;;;;;;9.97;3.87;;;;;;;;;;5052356;28;20251;-77
2022/10/02 05:00:56;;;;;;;11.43;3.40;;;;;;;;;;5060833;28;20207;-77
2022/10/02 05:03:40;;;;;;;7.80;3.40;;;;;;;;;;5082979;28;20184;-77
2022/10/02 05:06:20;;;;;;;9.73;3.43;;;;;;;;;;5062783;28;20189;-78
2022/10/02 05:08:59;;;;;;;6.30;3.10;;;;;;;;;;5066786;28;20711;-77
2022/10/02 05:11:28;;;;;;;7.13;3.40;;;;;;;;;;5079431;28;20192;-77
2022/10/02 05:14:04;;;;;;;6.60;3.37;;;;;;;;;;5069078;28;20551;-77
2022/10/02 05:16:49;;;;;;;5.27;3.27;;;;;;;;;;5079256;28;20622;-77
2022/10/02 05:19:35;;;;;;;11.17;3.53;;;;;;;;;;5078291;28;20208;-77
2022/10/02 05:22:01;;;;;;;6.37;3.20;;;;;;;;;;5080564;28;20254;-77
2022/10/02 05:24:41;;;;;;;8.20;3.10;;;;;;;;;;5084927;28;20595;-77
2022/10/02 05:27:22;;;;;;;9.63;3.60;;;;;;;;;;5083938;28;20732;-78
2022/10/02 05:29:55;;;;;;;11.33;4.00;;;;;;;;;;5085202;28;20188;-78
2022/10/02 05:32:40;;;;;;;8.47;3.80;;;;;;;;;;5082240;28;20191;-78
2022/10/02 05:35:20;;;;;;;9.83;3.53;;;;;;;;;;5082975;28;20197;-78
2022/10/02 05:37:46;;;;;;;6.10;3.80;;;;;;;;;;5074426;28;20216;-78
2022/10/02 05:40:15;;;;;;;8.37;3.73;;;;;;;;;;5083113;28;20283;-78
2022/10/02 05:42:52;;;;;;;7.83;3.73;;;;;;;;;;5089917;28;20188;-78
2022/10/02 05:45:21;;;;;;;6.70;3.10;;;;;;;;;;5087319;28;20184;-78
2022/10/02 05:47:49;;;;;;;8.30;3.80;;;;;;;;;;5077792;28;20264;-78
2022/10/02 05:50:17;;;;;;;8.73;3.80;;;;;;;;;;5080900;28;20605;-78
2022/10/02 05:52:50;;;;;;;11.80;4.07;;;;;;;;;;5081654;28;20182;-78
2022/10/02 05:55:23;;;;;;;9.67;3.77;;;;;;;;;;5083770;28;20182;-78
2022/10/02 05:57:50;;;;;;;9.43;3.70;;;;;;;;;;5078354;28;20201;-78
2022/10/02 06:00:20;;;;;;;10.13;3.80;;;;;;;;;;5068739;28;20239;-78
2022/10/02 06:02:52;;;;;;;10.67;3.70;;;;;;;;;;5082166;28;20177;-78
2022/10/02 06:05:23;;;;;;;7.83;3.33;;;;;;;;;;5083679;28;20192;-78
2022/10/02 06:07:52;;;;;;;6.37;3.60;;;;;;;;;;5080197;28;20184;-78
2022/10/02 06:10:21;;;;;;;8.57;4.07;;;;;;;;;;5083956;28;20226;-78
2022/10/02 06:13:01;;;;;;;9.33;4.10;;;;;;;;;;5083246;28;20212;-78
2022/10/02 06:15:43;;;;;;;9.23;4.10;;;;;;;;;;5076623;28;20481;-78
2022/10/02 06:18:12;;;;;;;10.53;3.80;;;;;;;;;;5066091;28;20188;-78
2022/10/02 06:20:45;;;;;;;9.40;3.60;;;;;;;;;;5077191;28;20216;-78
2022/10/02 06:23:19;;;;;;;9.30;3.40;;;;;;;;;;5079150;28;20524;-78
2022/10/02 06:26:04;;;;;;;9.57;3.90;;;;;;;;;;5067876;28;20276;-78
2022/10/02 06:28:30;;;;;;;7.63;3.50;;;;;;;;;;5085961;28;20188;-78
2022/10/02 06:30:58;;;;;;;7.40;3.67;;;;;;;;;;5083620;28;20823;-78
2022/10/02 06:33:27;;;;;;;10.07;3.60;;;;;;;;;;5090338;28;20230;-78
2022/10/02 06:36:12;;;;;;;7.63;3.57;;;;;;;;;;5070443;28;20245;-78
2022/10/02 06:38:38;;;;;;;8.17;3.77;;;;;;;;;;5065362;28;20188;-78
2022/10/02 06:41:25;;;;;;;8.73;3.70;;;;;;;;;;5082016;28;20350;-78
2022/10/02 06:44:15;;;;;;;6.80;3.63;;;;;;;;;;5046534;28;20582;-78
2022/10/02 06:47:02;;;;;;;10.07;3.53;;;;;;;;;;5082925;28;20226;-78
2022/10/02 06:49:38;;;;;;;7.73;3.70;;;;;;;;;;5063068;28;20625;-78
2022/10/02 06:52:19;;;;;;;10.13;3.77;;;;;;;;;;5084752;28;20227;-81
2022/10/02 06:54:45;;;;;;;8.90;3.90;;;;;;;;;;5081917;28;20173;-78
2022/10/02 06:57:22;;;;;;;8.43;3.00;;;;;;;;;;5077556;28;20192;-79
2022/10/02 07:00:02;;;;;;;11.20;3.60;;;;;;;;;;5084585;28;20612;-79
2022/10/02 07:02:52;;;;;;;9.37;3.43;;;;;;;;;;5070605;28;20206;-79
2022/10/02 07:05:27;;;;;;;6.13;3.53;;;;;;;;;;5071655;28;20227;-78
2022/10/02 07:08:19;;;;;;;8.13;3.90;;;;;;;;;;5087812;28;20826;-79
2022/10/02 07:10:54;;;;;;;10.83;3.63;;;;;;;;;;5075322;28;20214;-80
2022/10/02 07:13:37;;;;;;;6.43;2.93;;;;;;;;;;5063883;28;20183;-79
2022/10/02 07:16:07;;;;;;;7.70;3.43;;;;;;;;;;5078746;28;20554;-79
2022/10/02 07:19:02;;;;;;;8.37;3.23;;;;;;;;;;5088448;28;20191;-79
2022/10/02 07:21:45;;;;;;;7.33;3.07;;;;;;;;;;5009830;28;20269;-80
2022/10/02 07:24:11;;;;;;;11.83;3.67;;;;;;;;;;5088412;28;20632;-78
2022/10/02 07:26:37;;;;;;;7.57;3.50;;;;;;;;;;5089981;28;20771;-80
2022/10/02 07:29:21;;;;;;;8.57;3.60;;;;;;;;;;5071060;28;20216;-79
2022/10/02 07:32:19;;;;;;;6.67;3.73;;;;;;;;;;5032566;28;20216;-79
2022/10/02 07:35:03;;;;;;;6.60;3.50;;;;;;;;;;5070674;28;20180;-80
2022/10/02 07:37:48;;;;;;;7.53;3.37;;;;;;;;;;5074715;28;20231;-78
2022/10/02 07:40:18;;;;;;;6.67;4.20;;;;;;;;;;5076889;28;20318;-77
2022/10/02 07:42:53;;;;;;;8.30;3.87;;;;;;;;;;5052595;28;20176;-78
2022/10/02 07:45:28;;;;;;;5.37;2.70;;;;;;;;;;5059279;28;20198;-78
2022/10/02 07:48:09;;;;;;;8.90;3.40;;;;;;;;;;5077657;28;20282;-77
2022/10/02 07:50:39;;;;;;;7.40;3.07;;;;;;;;;;5060272;28;20197;-78
2022/10/02 07:53:11;;;;;;;6.17;3.07;;;;;;;;;;5079274;28;20643;-79
2022/10/02 07:55:43;;;;;;;6.80;3.10;;;;;;;;;;5080847;28;20271;-78
2022/10/02 07:58:21;;;;;;;8.10;3.20;;;;;;;;;;5081274;28;20272;-78
2022/10/02 08:00:49;;;;;;;7.00;3.33;;;;;;;;;;5076919;28;20215;-78
2022/10/02 08:03:18;;;;;;;7.67;3.10;;;;;;;;;;5078090;28;20563;-78
2022/10/02 08:05:48;;;;;;;6.00;2.87;;;;;;;;;;5080471;28;20859;-80
2022/10/02 08:08:18;;;;;;;4.40;2.90;;;;;;;;;;5079050;28;20181;-79
2022/10/02 08:10:47;;;;;;;6.50;3.00;;;;;;;;;;5052228;28;20203;-79
2022/10/02 08:13:19;;;;;;;5.40;3.17;;;;;;;;;;5068090;28;20245;-79
2022/10/02 08:15:46;;;;;;;7.37;3.10;;;;;;;;;;5057932;28;20595;-77
2022/10/02 08:18:32;;;;;;;4.00;2.70;;;;;;;;;;5081311;28;20181;-78
2022/10/02 08:20:59;;;;;;;4.20;2.90;;;;;;;;;;5063665;28;20236;-79
2022/10/02 08:23:28;;;;;;;7.27;3.43;;;;;;;;;;5079174;28;20639;-78
2022/10/02 08:26:01;;;;;;;7.87;3.17;;;;;;;;;;5077412;28;20173;-77
2022/10/02 08:28:31;;;;;;;5.80;3.30;;;;;;;;;;5060366;28;20192;-78
2022/10/02 08:30:57;;;;;;;5.27;3.40;;;;;;;;;;5072541;28;20209;-78
2022/10/02 08:33:24;;;;;;;5.67;4.10;;;;;;;;;;5082174;28;20192;-78
2022/10/02 08:36:02;;;;;;;6.80;4.40;;;;;;;;;;5082196;28;20833;-77
2022/10/02 08:38:37;;;;;;;3.33;3.03;;;;;;;;;;5078525;28;20213;-77
2022/10/02 08:41:10;;;;;;;7.73;4.30;;;;;;;;;;5059061;28;20209;-77
2022/10/02 08:43:48;;;;;;;6.33;4.67;;;;;;;;;;5075781;28;20183;-75
2022/10/02 08:46:17;;;;;;;4.47;3.30;;;;;;;;;;5076901;28;20176;-76
2022/10/02 08:48:49;;;;;;;5.20;2.70;;;;;;;;;;5075236;28;20197;-76
2022/10/02 08:51:29;;;;;;;2.60;2.40;;;;;;;;;;5076695;28;20196;-76
2022/10/02 08:54:07;;;;;;;3.07;2.70;;;;;;;;;;5060176;28;20188;-76
2022/10/02 08:56:57;;;;;;;3.93;2.60;;;;;;;;;;5063378;28;20275;-76
2022/10/02 08:59:26;;;;;;;5.10;2.67;;;;;;;;;;5074014;28;20584;-76
2022/10/02 09:02:08;;;;;;;3.43;2.70;;;;;;;;;;5078770;28;20284;-77
2022/10/02 09:05:03;;;;;;;4.43;3.10;;;;;;;;;;5075672;28;20212;-76
2022/10/02 09:07:48;;;;;;;5.73;3.90;;;;;;;;;;5076782;28;20207;-76
2022/10/02 09:10:26;;;;;;;4.80;3.60;;;;;;;;;;5077771;28;21731;-77
2022/10/02 09:13:11;;;;;;;5.27;3.70;;;;;;;;;;5077811;28;20263;-77
2022/10/02 09:15:37;;;;;;;3.80;3.17;;;;;;;;;;5076980;28;20196;-76
2022/10/02 09:18:07;;;;;;;4.30;3.87;;;;;;;;;;5079173;28;20189;-76
2022/10/02 09:20:40;;;;;;;3.70;2.53;;;;;;;;;;5077356;28;20253;-76
2022/10/02 09:23:16;;;;;;;2.80;2.30;;;;;;;;;;5081819;28;20180;-77
2022/10/02 09:25:45;;;;;;;2.90;1.90;;;;;;;;;;5079471;28;20187;-76
2022/10/02 09:28:30;;;;;;;2.93;2.00;;;;;;;;;;5078778;28;20279;-79
2022/10/02 09:31:09;;;;;;;4.63;2.60;;;;;;;;;;5074726;28;20244;-77
2022/10/02 09:33:52;;;;;;;4.00;3.53;;;;;;;;;;5077844;28;20655;-76
2022/10/02 09:36:37;;;;;;;4.10;2.57;;;;;;;;;;5075476;28;20212;-76
2022/10/02 09:39:10;;;;;;;3.13;2.23;;;;;;;;;;5062925;28;20186;-76
2022/10/02 09:41:36;;;;;;;3.20;2.40;;;;;;;;;;5074152;28;20201;-76
2022/10/02 09:44:22;;;;;;;3.13;2.20;;;;;;;;;;5074169;28;20230;-76
2022/10/02 09:47:07;;;;;;;4.33;2.60;;;;;;;;;;5059649;28;20185;-76
2022/10/02 09:49:51;;;;;;;2.93;2.47;;;;;;;;;;5059548;28;20258;-77
2022/10/02 09:52:41;;;;;;;1.97;1.70;;;;;;;;;;5054860;28;20181;-77
2022/10/02 09:55:26;;;;;;;2.47;1.87;;;;;;;;;;5060163;28;20268;-76
2022/10/02 09:58:02;;;;;;;2.10;1.70;;;;;;;;;;5054396;28;20197;-76
2022/10/02 10:01:00;;;;;;;2.80;2.07;;;;;;;;;;5077142;28;20299;-78
2022/10/02 10:03:49;;;;;;;3.20;2.43;;;;;;;;;;5036997;28;20189;-77
2022/10/02 10:06:31;;;;;;;4.63;3.30;;;;;;;;;;5068416;28;20279;-76
2022/10/02 10:09:15;;;;;;;2.97;2.67;;;;;;;;;;5082792;28;20189;-77
2022/10/02 10:12:01;;;;;;;2.77;2.50;;;;;;;;;;5078639;28;20250;-76
2022/10/02 10:14:41;;;;;;;3.00;2.17;;;;;;;;;;5067940;28;20189;-76
2022/10/02 10:17:22;;;;;;;3.03;2.10;;;;;;;;;;5083110;28;20177;-77
2022/10/02 10:20:08;;;;;;;2.00;1.80;;;;;;;;;;5079685;28;20204;-77
2022/10/02 10:22:50;;;;;;;2.27;2.00;;;;;;;;;;5078734;28;20183;-74
2022/10/02 10:25:35;;;;;;;4.17;2.70;;;;;;;;;;5078163;28;20552;-74
2022/10/02 10:28:07;;;;;;;3.63;2.20;;;;;;;;;;5078960;28;20176;-78
2022/10/02 10:30:36;;;;;;;3.10;2.40;;;;;;;;;;5078611;28;20204;-77
2022/10/02 10:33:33;;;;;;;3.53;3.20;;;;;;;;;;5051282;28;20993;-77
2022/10/02 10:39:06;;;;;;;4.37;2.23;;;;;;;;;;5042656;28;20204;-76
2022/10/02 10:41:42;;;;;;;4.50;2.93;;;;;;;;;;5075326;28;20196;-76
2022/10/02 10:44:14;;;;;;;4.23;3.43;;;;;;;;;;5079338;28;22168;-73
2022/10/02 10:46:54;;;;;;;2.73;2.53;;;;;;;;;;5078038;28;20683;-76
2022/10/02 10:49:39;;;;;;;3.37;3.07;;;;;;;;;;5083332;28;20165;-79
2022/10/02 10:52:06;;;;;;;2.77;2.40;;;;;;;;;;5078309;28;20197;-74
2022/10/02 10:54:39;;;;;;;2.33;2.13;;;;;;;;;;5079104;28;20540;-75
2022/10/02 10:57:16;;;;;;;2.70;2.10;;;;;;;;;;5077910;28;20182;-73
2022/10/02 10:59:49;;;;;;;2.37;1.93;;;;;;;;;;5077191;28;20200;-74
2022/10/02 11:02:15;;;;;;;5.17;3.80;;;;;;;;;;5075679;28;20254;-75
2022/10/02 11:04:51;;;;;;;2.37;2.00;;;;;;;;;;5078705;28;20208;-76
2022/10/02 11:07:26;;;;;;;2.77;2.00;;;;;;;;;;5081175;28;20181;-75
2022/10/02 11:10:06;;;;;;;2.03;1.83;;;;;;;;;;5078145;28;20208;-74
2022/10/02 11:12:46;;;;;;;2.00;1.57;;;;;;;;;;5082133;28;20177;-76
2022/10/02 11:15:24;;;;;;;2.73;1.77;;;;;;;;;;5077645;28;20181;-74
2022/10/02 11:17:50;;;;;;;3.17;2.00;;;;;;;;;;5083095;28;20597;-74
2022/10/02 11:20:19;;;;;;;2.07;1.67;;;;;;;;;;5079267;28;20200;-74
2022/10/02 11:22:57;;;;;;;1.80;1.70;;;;;;;;;;5082872;28;20208;-75
2022/10/02 11:25:47;;;;;;;1.50;1.40;;;;;;;;;;5081549;28;20628;-77
2022/10/02 11:28:31;;;;;;;1.60;1.50;;;;;;;;;;5049808;28;20211;-74
2022/10/02 11:31:04;;;;;;;1.70;1.53;;;;;;;;;;5074910;28;20212;-70
2022/10/02 11:33:30;;;;;;;1.37;1.27;;;;;;;;;;5073332;28;20276;-71
2022/10/02 11:36:08;;;;;;;2.10;1.60;;;;;;;;;;5075281;28;20276;-73
2022/10/02 11:38:53;;;;;;;1.90;1.50;;;;;;;;;;5084242;28;20652;-73
2022/10/02 11:41:25;;;;;;;2.73;1.90;;;;;;;;;;5086216;28;20219;-72
2022/10/02 11:43:58;;;;;;;2.57;1.60;;;;;;;;;;5082824;28;20204;-69
2022/10/02 11:46:27;;;;;;;1.70;1.57;;;;;;;;;;5079145;28;20267;-70
2022/10/02 11:48:59;;;;;;;1.60;1.50;;;;;;;;;;5074272;28;20212;-72
2022/10/02 11:51:50;;;;;;;2.20;1.50;;;;;;;;;;5081276;28;20197;-72
2022/10/02 11:54:35;;;;;;;1.70;1.53;;;;;;;;;;5074915;28;20189;-70
2022/10/02 11:57:04;;;;;;;1.80;1.63;;;;;;;;;;5081347;28;20669;-71
2022/10/02 11:59:49;;;;;;;1.90;1.60;;;;;;;;;;5084184;28;20230;-71
2022/10/02 12:02:37;;;;;;;1.67;1.50;;;;;;;;;;5062663;28;20272;-73
2022/10/02 12:05:22;;;;;;;1.87;1.50;;;;;;;;;;5061151;28;21247;-73
2022/10/02 12:08:02;;;;;;;1.60;1.50;;;;;;;;;;5078928;28;20313;-72
2022/10/02 12:10:28;;;;;;;4.10;1.80;;;;;;;;;;5074959;28;20200;-71
2022/10/02 12:13:04;;;;;;;1.90;1.47;;;;;;;;;;5075026;28;20236;-74
2022/10/02 12:15:33;;;;;;;2.60;1.67;;;;;;;;;;5083768;28;20211;-72
2022/10/02 12:18:14;;;;;;;2.30;1.70;;;;;;;;;;5077683;28;20205;-74
2022/10/02 12:26:58;;;;;;;2.30;2.10;;;;;;;;;;5059693;28;20242;-72
2022/10/02 12:29:43;;;;;;;2.23;1.97;;;;;;;;;;5076063;28;20180;-71
2022/10/02 12:32:15;;;;;;;2.70;2.00;;;;;;;;;;5060072;28;20896;-73
2022/10/02 12:34:45;;;;;;;2.23;2.03;;;;;;;;;;5077150;28;20183;-75
2022/10/02 12:37:18;;;;;;;2.50;2.30;;;;;;;;;;5080998;28;20261;-72
2022/10/02 12:39:56;;;;;;;2.73;2.27;;;;;;;;;;5075926;28;20570;-71
2022/10/02 12:42:41;;;;;;;4.20;2.50;;;;;;;;;;5085463;28;20191;-72
2022/10/02 12:45:27;;;;;;;2.87;2.67;;;;;;;;;;5082291;28;20176;-73
2022/10/02 12:48:21;;;;;;;2.20;1.90;;;;;;;;;;5084243;28;20180;-71
2022/10/02 12:51:04;;;;;;;2.70;2.50;;;;;;;;;;5080721;28;20200;-71
2022/10/02 12:53:30;;;;;;;3.30;2.67;;;;;;;;;;5080788;28;20192;-76
2022/10/02 12:55:56;;;;;;;3.03;2.10;;;;;;;;;;5084293;28;20180;-72
2022/10/02 12:58:42;;;;;;;3.60;3.30;;;;;;;;;;5082476;28;20184;-75
2022/10/02 13:01:14;;;;;;;4.77;3.47;;;;;;;;;;5081902;28;20221;-73
2022/10/02 13:03:49;;;;;;;5.20;4.67;;;;;;;;;;5068334;28;20267;-72
2022/10/02 13:06:28;;;;;;;3.53;3.23;;;;;;;;;;5081927;28;20172;-74
2022/10/02 13:09:04;;;;;;;3.20;2.87;;;;;;;;;;5084537;28;20187;-72
2022/10/02 13:11:36;;;;;;;3.43;2.60;;;;;;;;;;5072309;28;20902;-72
2022/10/02 13:14:15;;;;;;;3.53;3.23;;;;;;;;;;5058072;28;20517;-72
2022/10/02 13:16:45;;;;;;;3.50;2.50;;;;;;;;;;5083120;28;20180;-71
2022/10/02 13:19:15;;;;;;;3.93;2.40;;;;;;;;;;5078806;28;20908;-74
2022/10/02 13:22:13;;;;;;;2.60;2.20;;;;;;;;;;5084577;28;20196;-73
2022/10/02 13:24:43;;;;;;;2.47;2.10;;;;;;;;;;5036955;28;20201;-72
2022/10/02 13:27:28;;;;;;;2.87;2.40;;;;;;;;;;5084554;28;20197;-81
2022/10/02 13:30:17;;;;;;;3.37;2.30;;;;;;;;;;5078042;28;20549;-73
2022/10/02 13:32:44;;;;;;;2.40;2.20;;;;;;;;;;5045870;28;20732;-73
2022/10/02 13:35:16;;;;;;;2.90;2.70;;;;;;;;;;5085625;28;20196;-73
2022/10/02 13:37:54;;;;;;;3.80;2.50;;;;;;;;;;5080043;28;20192;-74
2022/10/02 13:40:29;;;;;;;3.23;2.83;;;;;;;;;;5073074;28;20223;-74
2022/10/02 13:43:05;;;;;;;3.83;3.10;;;;;;;;;;5089153;28;20188;-74
2022/10/02 13:45:34;;;;;;;4.87;3.90;;;;;;;;;;5060954;28;20183;-75
2022/10/02 13:48:07;;;;;;;4.33;3.77;;;;;;;;;;5072726;28;20180;-73
2022/10/02 13:50:52;;;;;;;4.33;3.93;;;;;;;;;;5077934;28;20688;-73
2022/10/02 13:53:37;;;;;;;3.67;3.20;;;;;;;;;;5081204;28;20176;-75
2022/10/02 13:56:23;;;;;;;4.30;3.27;;;;;;;;;;5080757;28;20600;-73
2022/10/02 13:59:07;;;;;;;4.13;3.67;;;;;;;;;;5082828;28;20187;-73
2022/10/02 14:01:59;;;;;;;4.87;4.37;;;;;;;;;;5078512;28;20284;-72
2022/10/02 14:04:32;;;;;;;5.27;4.30;;;;;;;;;;5075215;28;20609;-74
2022/10/02 14:07:18;;;;;;;4.23;3.80;;;;;;;;;;5078469;28;20181;-72
2022/10/02 14:09:51;;;;;;;3.70;3.40;;;;;;;;;;5060096;28;20204;-74
2022/10/02 14:12:27;;;;;;;5.57;3.97;;;;;;;;;;5081392;28;20180;-74
2022/10/02 14:15:11;;;;;;;4.13;3.73;;;;;;;;;;5080427;28;20272;-74
2022/10/02 14:17:54;;;;;;;4.60;3.93;;;;;;;;;;5080975;28;20192;-73
2022/10/02 14:20:46;;;;;;;4.67;4.20;;;;;;;;;;5059624;28;20208;-75
2022/10/02 14:23:12;;;;;;;4.27;3.70;;;;;;;;;;5076130;28;20175;-73
2022/10/02 14:25:45;;;;;;;3.67;3.37;;;;;;;;;;5079383;28;20177;-73
2022/10/02 14:28:31;;;;;;;3.73;3.33;;;;;;;;;;5079147;28;21665;-73
2022/10/02 14:31:06;;;;;;;4.23;3.40;;;;;;;;;;5079110;28;20196;-73
2022/10/02 14:33:37;;;;;;;3.53;3.10;;;;;;;;;;5047722;28;20176;-73
2022/10/02 14:36:06;;;;;;;3.10;2.80;;;;;;;;;;5079913;28;20184;-75
2022/10/02 14:38:48;;;;;;;3.60;3.10;;;;;;;;;;5079082;28;20181;-75
2022/10/02 14:41:33;;;;;;;3.33;2.80;;;;;;;;;;5078453;28;20247;-73
2022/10/02 14:44:07;;;;;;;3.47;2.50;;;;;;;;;;5079037;28;20180;-75
2022/10/02 14:46:52;;;;;;;3.57;2.80;;;;;;;;;;5078146;28;20181;-73
2022/10/02 14:49:26;;;;;;;4.17;2.80;;;;;;;;;;5078206;28;20207;-74
2022/10/02 14:51:55;;;;;;;3.67;2.67;;;;;;;;;;5078518;28;20199;-73
2022/10/02 14:54:47;;;;;;;3.00;2.70;;;;;;;;;;5079551;28;20198;-74
2022/10/02 14:57:23;;;;;;;3.30;2.70;;;;;;;;;;5075550;28;20184;-73
2022/10/02 14:59:59;;;;;;;3.10;2.57;;;;;;;;;;5077537;28;20223;-73
2022/10/02 15:02:46;;;;;;;3.77;2.60;;;;;;;;;;5078365;28;20181;-73
2022/10/02 15:05:30;;;;;;;3.80;3.20;;;;;;;;;;5059030;28;20181;-73
2022/10/02 15:07:58;;;;;;;4.23;3.27;;;;;;;;;;5076999;28;20668;-73
2022/10/02 15:10:32;;;;;;;3.30;3.00;;;;;;;;;;5078747;28;20309;-73
2022/10/02 15:13:02;;;;;;;4.07;3.10;;;;;;;;;;5077569;28;20187;-73
2022/10/02 15:15:39;;;;;;;3.60;3.00;;;;;;;;;;5078241;28;20183;-74
2022/10/02 15:18:19;;;;;;;3.30;3.00;;;;;;;;;;5077130;28;20196;-73
2022/10/02 15:21:04;;;;;;;3.30;3.00;;;;;;;;;;5078614;28;20215;-73
2022/10/02 15:23:31;;;;;;;5.57;3.80;;;;;;;;;;5078230;28;20177;-73
2022/10/02 15:26:20;;;;;;;4.30;3.90;;;;;;;;;;5073753;28;21250;-73
2022/10/02 15:28:55;;;;;;;3.63;3.33;;;;;;;;;;5076168;28;20205;-73
2022/10/02 15:31:31;;;;;;;3.87;2.90;;;;;;;;;;5079440;28;20247;-73
2022/10/02 15:34:00;;;;;;;3.67;2.97;;;;;;;;;;5076848;28;20179;-73
2022/10/02 15:36:26;;;;;;;2.90;2.60;;;;;;;;;;5072188;28;22693;-74
2022/10/02 15:38:53;;;;;;;3.40;2.90;;;;;;;;;;5075197;28;20189;-73
2022/10/02 15:41:19;;;;;;;4.13;2.63;;;;;;;;;;5077152;28;20220;-73
2022/10/02 15:43:59;;;;;;;5.20;3.00;;;;;;;;;;5061299;28;20554;-73